createdAt,value
2018-12-07T00:00:01.897Z,8.50
2018-12-07T00:02:28.898Z,8.50
2018-12-07T00:04:55.958Z,8.50
2018-12-07T00:07:22.937Z,8.50
2018-12-07T00:09:56.917Z,8.60
2018-12-07T00:12:23.898Z,8.50
2018-12-07T00:14:51.098Z,8.60
2018-12-07T00:17:18.138Z,8.50
2018-12-07T00:19:47.841Z,8.50
2018-12-07T00:22:13.790Z,8.50
2018-12-07T00:24:40.803Z,8.40
2018-12-07T00:27:07.863Z,8.40
2018-12-07T00:29:34.863Z,8.50
2018-12-07T00:32:01.904Z,8.60
2018-12-07T00:34:28.923Z,8.50
2018-12-07T00:36:56.003Z,8.60
2018-12-07T00:39:23.011Z,8.60
2018-12-07T00:41:50.023Z,8.60
2018-12-07T00:44:17.023Z,8.70
2018-12-07T00:46:44.043Z,8.50
2018-12-07T00:49:11.063Z,8.50
2018-12-07T00:51:38.123Z,8.40
2018-12-07T00:54:05.544Z,8.50
2018-12-07T00:56:33.243Z,8.40
2018-12-07T00:59:00.283Z,8.40
2018-12-07T01:01:27.343Z,8.30
2018-12-07T01:03:54.323Z,8.30
2018-12-07T01:06:21.403Z,8.30
2018-12-07T01:08:48.423Z,8.30
2018-12-07T01:11:15.493Z,8.30
2018-12-07T01:13:42.573Z,8.20
2018-12-07T01:16:09.674Z,8.20
2018-12-07T01:18:36.614Z,8.20
2018-12-07T01:21:04.055Z,8.20
2018-12-07T01:23:31.075Z,8.10
2018-12-07T01:25:58.154Z,8.10
2018-12-07T01:28:25.373Z,8.10
2018-12-07T01:30:52.354Z,8.10
2018-12-07T01:33:19.393Z,8.10
2018-12-07T01:35:46.594Z,8.10
2018-12-07T01:38:13.633Z,8.10
2018-12-07T01:40:47.614Z,8.10
2018-12-07T01:43:14.673Z,8.10
2018-12-07T01:45:41.695Z,8.10
2018-12-07T01:48:08.814Z,8.00
2018-12-07T01:50:35.839Z,8.10
2018-12-07T01:53:02.934Z,8.20
2018-12-07T01:55:29.973Z,8.10
2018-12-07T01:57:57.013Z,8.20
2018-12-07T02:00:24.035Z,8.20
2018-12-07T02:02:51.073Z,8.30
2018-12-07T02:05:18.113Z,8.30
2018-12-07T02:07:45.174Z,8.30
2018-12-07T02:10:12.215Z,8.40
2018-12-07T02:12:39.666Z,8.40
2018-12-07T02:15:06.734Z,8.30
2018-12-07T02:17:33.738Z,8.30
2018-12-07T02:20:00.853Z,8.20
2018-12-07T02:22:27.927Z,8.20
2018-12-07T02:25:02.153Z,8.10
2018-12-07T02:27:31.935Z,8.30
2018-12-07T02:30:06.053Z,8.10
2018-12-07T02:32:33.055Z,8.10
2018-12-07T02:34:59.989Z,8.10
2018-12-07T02:37:27.048Z,8.10
2018-12-07T02:39:54.035Z,8.10
2018-12-07T02:42:21.074Z,8.10
2018-12-07T02:44:55.256Z,8.00
2018-12-07T02:47:22.255Z,8.00
2018-12-07T02:49:49.294Z,8.10
2018-12-07T02:52:16.285Z,8.10
2018-12-07T02:54:43.255Z,8.10
2018-12-07T02:57:10.755Z,8.20
2018-12-07T02:59:37.894Z,8.10
2018-12-07T03:02:04.934Z,8.10
2018-12-07T03:04:31.974Z,8.00
2018-12-07T03:07:05.874Z,8.00
2018-12-07T03:09:32.935Z,8.00
2018-12-07T03:11:59.936Z,7.90
2018-12-07T03:14:26.935Z,7.90
2018-12-07T03:16:53.951Z,8.00
2018-12-07T03:19:20.962Z,8.10
2018-12-07T03:21:48.061Z,8.10
2018-12-07T03:24:15.077Z,8.10
2018-12-07T03:26:42.034Z,8.20
2018-12-07T03:29:09.034Z,8.20
2018-12-07T03:31:36.035Z,8.20
2018-12-07T03:34:03.040Z,8.30
2018-12-07T03:36:30.175Z,8.30
2018-12-07T03:38:57.276Z,8.30
2018-12-07T03:41:24.276Z,8.30
2018-12-07T03:43:51.814Z,8.40
2018-12-07T03:46:18.854Z,8.40
2018-12-07T03:48:45.914Z,8.50
2018-12-07T03:51:12.915Z,8.50
2018-12-07T03:53:39.935Z,8.50
2018-12-07T03:56:06.874Z,8.50
2018-12-07T03:58:33.896Z,8.50
2018-12-07T04:01:00.934Z,8.60
2018-12-07T04:03:27.994Z,8.60
2018-12-07T04:05:54.935Z,8.60
2018-12-07T04:08:22.017Z,8.60
2018-12-07T04:10:48.994Z,8.60
2018-12-07T04:13:15.955Z,8.60
2018-12-07T04:15:42.995Z,8.70
2018-12-07T04:18:10.018Z,8.70
2018-12-07T04:20:37.015Z,8.70
2018-12-07T04:23:04.055Z,8.70
2018-12-07T04:25:31.076Z,8.80
2018-12-07T04:27:58.034Z,8.80
2018-12-07T04:30:25.562Z,8.80
2018-12-07T04:32:52.576Z,8.80
2018-12-07T04:35:19.554Z,8.80
2018-12-07T04:37:46.516Z,8.80
2018-12-07T04:40:14.419Z,8.60
2018-12-07T04:42:41.416Z,8.80
2018-12-07T04:48:57.597Z,8.90
2018-12-07T04:51:24.575Z,8.90
2018-12-07T04:53:51.535Z,8.80
2018-12-07T04:56:18.536Z,8.80
2018-12-07T04:58:45.859Z,8.80
2018-12-07T05:01:12.895Z,8.80
2018-12-07T05:03:39.954Z,8.90
2018-12-07T05:06:13.838Z,8.80
2018-12-07T05:08:40.835Z,8.80
2018-12-07T05:11:07.776Z,8.90
2018-12-07T05:13:41.815Z,8.80
2018-12-07T05:16:08.775Z,8.80
2018-12-07T05:18:35.858Z,8.90
2018-12-07T05:21:02.959Z,9.00
2018-12-07T05:23:29.955Z,9.00
2018-12-07T05:25:56.955Z,8.90
2018-12-07T05:28:24.114Z,8.90
2018-12-07T05:30:51.081Z,8.80
2018-12-07T05:33:19.055Z,8.90
2018-12-07T05:35:46.035Z,9.00
2018-12-07T05:38:13.035Z,9.00
2018-12-07T05:40:39.987Z,9.00
2018-12-07T05:43:06.981Z,9.00
2018-12-07T05:45:33.976Z,9.10
2018-12-07T05:48:00.916Z,9.00
2018-12-07T05:50:28.442Z,9.10
2018-12-07T05:52:55.395Z,9.10
2018-12-07T05:55:22.415Z,9.00
2018-12-07T05:57:49.435Z,9.00
2018-12-07T06:00:16.517Z,9.10
2018-12-07T06:02:43.475Z,9.20
2018-12-07T06:05:10.695Z,9.10
2018-12-07T06:07:37.697Z,9.10
2018-12-07T06:10:04.874Z,9.10
2018-12-07T06:12:31.835Z,9.00
2018-12-07T06:14:59.054Z,9.00
2018-12-07T06:17:26.075Z,9.10
2018-12-07T06:19:53.095Z,9.10
2018-12-07T06:22:20.175Z,9.10
2018-12-07T06:24:47.254Z,9.30
2018-12-07T06:27:14.234Z,9.30
2018-12-07T06:29:41.294Z,9.40
2018-12-07T06:32:08.373Z,9.30
2018-12-07T06:34:35.534Z,9.20
2018-12-07T06:37:02.614Z,9.20
2018-12-07T06:39:29.633Z,9.30
2018-12-07T06:41:56.654Z,9.30
2018-12-07T06:44:23.573Z,9.30
2018-12-07T06:46:50.673Z,9.30
2018-12-07T06:49:17.654Z,9.30
2018-12-07T06:51:44.696Z,9.40
2018-12-07T06:54:11.673Z,9.30
2018-12-07T06:56:38.653Z,9.30
2018-12-07T06:59:05.698Z,9.30
2018-12-07T07:01:32.694Z,9.30
2018-12-07T07:03:59.754Z,9.40
2018-12-07T07:06:33.756Z,9.50
2018-12-07T07:09:00.754Z,9.50
2018-12-07T07:11:27.894Z,9.60
2018-12-07T07:13:54.934Z,9.60
2018-12-07T07:16:28.854Z,9.60
2018-12-07T07:18:55.954Z,9.70
2018-12-07T07:21:23.154Z,9.50
2018-12-07T07:23:50.227Z,9.50
2018-12-07T07:26:17.256Z,9.40
2018-12-07T07:28:44.195Z,9.50
2018-12-07T07:31:11.292Z,9.50
2018-12-07T07:33:38.334Z,9.60
2018-12-07T07:36:05.414Z,9.60
2018-12-07T07:38:32.374Z,9.70
2018-12-07T07:41:06.179Z,9.70
2018-12-07T07:43:33.654Z,9.90
2018-12-07T07:46:00.694Z,9.90
2018-12-07T07:48:27.653Z,10.00
2018-12-07T07:53:56.833Z,10.20
2018-12-07T07:56:23.894Z,10.30
2018-12-07T07:58:50.974Z,10.40
2018-12-07T08:01:17.973Z,10.40
2018-12-07T08:03:45.014Z,10.40
2018-12-07T08:06:18.873Z,10.60
2018-12-07T08:08:45.914Z,10.60
2018-12-07T08:11:12.873Z,10.70
2018-12-07T08:13:40.033Z,10.80
2018-12-07T08:16:07.074Z,10.70
2018-12-07T08:18:34.073Z,10.80
2018-12-07T08:21:01.136Z,10.80
2018-12-07T08:23:28.134Z,10.90
2018-12-07T08:25:55.155Z,11.00
2018-12-07T08:28:22.731Z,11.10
2018-12-07T08:30:50.093Z,11.20
2018-12-07T08:33:17.093Z,11.20
2018-12-07T08:35:44.113Z,11.20
2018-12-07T08:38:11.133Z,11.30
2018-12-07T08:40:38.155Z,11.30
2018-12-07T08:43:05.156Z,11.30
2018-12-07T08:45:32.133Z,11.40
2018-12-07T08:47:59.075Z,11.40
2018-12-07T08:50:26.349Z,11.40
2018-12-07T08:52:53.392Z,11.60
2018-12-07T08:55:20.415Z,11.60
2018-12-07T08:57:47.413Z,11.30
2018-12-07T09:00:14.512Z,11.40
2018-12-07T09:02:41.513Z,11.40
2018-12-07T09:05:08.573Z,11.30
2018-12-07T09:07:35.613Z,11.30
2018-12-07T09:10:04.073Z,11.20
2018-12-07T09:12:31.373Z,11.30
2018-12-07T09:14:58.336Z,11.30
2018-12-07T09:17:25.375Z,11.30
2018-12-07T09:19:52.333Z,11.40
2018-12-07T09:22:19.416Z,11.50
2018-12-07T09:24:46.372Z,11.60
2018-12-07T09:27:20.463Z,11.60
2018-12-07T09:29:47.356Z,11.70
2018-12-07T09:32:14.317Z,11.70
2018-12-07T09:34:41.272Z,11.90
2018-12-07T09:37:08.293Z,11.80
2018-12-07T09:39:35.313Z,11.90
2018-12-07T09:42:02.317Z,12.10
2018-12-07T09:44:29.673Z,12.20
2018-12-07T09:46:56.696Z,12.40
2018-12-07T09:49:30.859Z,12.40
2018-12-07T09:51:57.893Z,12.50
2018-12-07T09:54:24.853Z,12.60
2018-12-07T09:56:51.953Z,12.90
2018-12-07T09:59:18.933Z,12.70
2018-12-07T10:01:46.077Z,13.00
2018-12-07T10:04:13.395Z,13.10
2018-12-07T10:06:40.452Z,13.10
2018-12-07T10:09:07.493Z,13.40
2018-12-07T10:11:34.553Z,13.20
2018-12-07T10:14:02.060Z,13.50
2018-12-07T10:16:29.140Z,13.30
2018-12-07T10:18:56.098Z,13.30
2018-12-07T10:21:23.094Z,13.50
2018-12-07T10:23:50.094Z,13.60
2018-12-07T10:26:17.133Z,13.90
2018-12-07T10:28:44.095Z,14.30
2018-12-07T10:31:11.133Z,14.40
2018-12-07T10:33:38.113Z,14.50
2018-12-07T10:36:05.132Z,14.60
2018-12-07T10:38:32.154Z,14.70
2018-12-07T10:40:59.552Z,14.80
2018-12-07T10:43:26.774Z,15.00
2018-12-07T10:45:53.814Z,15.00
2018-12-07T10:48:20.801Z,15.00
2018-12-07T10:50:47.974Z,15.20
2018-12-07T10:53:15.014Z,15.20
2018-12-07T10:55:42.054Z,15.40
2018-12-07T10:58:09.076Z,15.50
2018-12-07T11:00:42.176Z,15.60
2018-12-07T11:03:15.076Z,15.40
2018-12-07T11:05:42.192Z,15.30
2018-12-07T11:08:15.153Z,15.60
2018-12-07T11:10:48.274Z,15.70
2018-12-07T11:13:21.293Z,15.80
2018-12-07T11:15:54.438Z,15.80
2018-12-07T11:18:27.357Z,15.90
2018-12-07T11:21:07.214Z,16.00
2018-12-07T11:26:45.997Z,15.70
2018-12-07T11:29:15.095Z,15.60
2018-12-07T11:31:44.253Z,15.60
2018-12-07T11:34:13.321Z,15.60
2018-12-07T11:36:40.353Z,15.40
2018-12-07T11:39:08.254Z,15.30
2018-12-07T11:41:35.313Z,15.50
2018-12-07T11:44:02.273Z,15.80
2018-12-07T11:46:36.386Z,15.90
2018-12-07T11:49:03.394Z,15.90
2018-12-07T11:51:37.554Z,16.10
2018-12-07T11:57:00.573Z,16.10
2018-12-07T11:59:27.576Z,16.00
2018-12-07T12:01:54.639Z,15.90
2018-12-07T12:04:21.573Z,15.80
2018-12-07T12:06:48.593Z,15.70
2018-12-07T12:09:15.553Z,15.70
2018-12-07T12:11:42.514Z,15.60
2018-12-07T12:14:09.515Z,15.70
2018-12-07T12:16:36.533Z,15.80
2018-12-07T12:19:03.495Z,15.90
2018-12-07T12:21:30.422Z,15.90
2018-12-07T12:23:57.454Z,15.90
2018-12-07T12:26:24.575Z,15.80
2018-12-07T12:28:51.731Z,15.90
2018-12-07T12:31:18.721Z,15.80
2018-12-07T12:33:45.761Z,15.80
2018-12-07T12:36:17.029Z,15.90
2018-12-07T12:38:42.162Z,15.90
2018-12-07T12:41:09.101Z,16.00
2018-12-07T12:43:36.104Z,15.90
2018-12-07T12:46:03.162Z,15.90
2018-12-07T12:48:30.401Z,15.80
2018-12-07T12:50:59.041Z,15.70
2018-12-07T12:53:26.102Z,15.80
2018-12-07T12:55:53.200Z,15.70
2018-12-07T12:58:20.261Z,15.70
2018-12-07T13:00:47.224Z,15.70
2018-12-07T13:03:14.281Z,15.80
2018-12-07T13:05:41.221Z,15.70
2018-12-07T13:08:08.200Z,15.70
2018-12-07T13:10:35.261Z,15.80
2018-12-07T13:13:02.321Z,15.70
2018-12-07T13:15:29.341Z,15.80
2018-12-07T13:18:07.691Z,15.70
2018-12-07T13:20:34.662Z,15.60
2018-12-07T13:23:01.642Z,15.60
2018-12-07T13:25:28.642Z,15.60
2018-12-07T13:27:55.662Z,15.60
2018-12-07T13:30:22.640Z,15.40
2018-12-07T13:32:49.561Z,15.50
2018-12-07T13:35:16.531Z,15.50
2018-12-07T13:37:43.509Z,15.50
2018-12-07T13:40:10.691Z,15.40
2018-12-07T13:42:37.790Z,15.40
2018-12-07T13:45:06.770Z,15.40
2018-12-07T13:47:33.944Z,15.40
2018-12-07T13:50:07.104Z,15.40
2018-12-07T13:52:34.301Z,15.50
2018-12-07T13:55:01.708Z,15.50
2018-12-07T13:57:28.910Z,15.40
2018-12-07T13:59:56.071Z,15.50
2018-12-07T14:02:23.333Z,15.60
2018-12-07T14:04:50.635Z,15.70
2018-12-07T14:07:17.862Z,15.70
2018-12-07T14:09:45.022Z,15.70
2018-12-07T14:12:12.651Z,15.40
2018-12-07T14:14:39.757Z,15.40
2018-12-07T14:17:07.113Z,15.20
2018-12-07T14:19:34.260Z,15.50
2018-12-07T14:22:01.773Z,15.60
2018-12-07T14:24:28.866Z,15.40
2018-12-07T14:26:59.469Z,15.30
2018-12-07T14:29:25.181Z,15.20
2018-12-07T14:31:52.750Z,15.20
2018-12-07T14:34:19.972Z,15.10
2018-12-07T14:36:47.095Z,15.40
2018-12-07T14:39:14.177Z,15.50
2018-12-07T14:41:41.193Z,15.50
2018-12-07T14:44:08.549Z,15.40
2018-12-07T14:46:36.034Z,15.30
2018-12-07T14:49:03.582Z,15.20
2018-12-07T14:51:30.849Z,15.10
2018-12-07T14:53:58.217Z,14.80
2018-12-07T14:56:25.276Z,14.70
2018-12-07T14:58:52.333Z,14.60
2018-12-07T15:01:19.515Z,14.60
2018-12-07T15:03:46.821Z,14.70
2018-12-07T15:06:14.039Z,14.70
2018-12-07T15:08:41.363Z,14.70
2018-12-07T15:11:08.616Z,14.50
2018-12-07T15:13:36.131Z,14.20
2018-12-07T15:16:03.242Z,14.00
2018-12-07T15:18:30.371Z,13.70
2018-12-07T15:20:57.449Z,13.60
2018-12-07T15:23:24.697Z,13.60
2018-12-07T15:25:51.815Z,13.60
2018-12-07T15:28:18.896Z,13.60
2018-12-07T15:30:46.007Z,13.60
2018-12-07T15:33:13.021Z,13.50
2018-12-07T15:35:40.072Z,13.40
2018-12-07T15:38:07.078Z,13.40
2018-12-07T15:40:34.374Z,13.40
2018-12-07T15:43:01.355Z,13.30
2018-12-07T15:45:28.673Z,13.20
2018-12-07T15:47:55.887Z,13.20
2018-12-07T15:50:25.314Z,13.20
2018-12-07T15:52:52.571Z,13.10
2018-12-07T15:55:19.654Z,13.10
2018-12-07T15:57:46.748Z,13.00
2018-12-07T16:00:13.757Z,13.00
2018-12-07T16:02:41.113Z,13.00
2018-12-07T16:05:08.371Z,12.90
2018-12-07T16:07:35.506Z,12.80
2018-12-07T16:10:16.653Z,12.80
2018-12-07T16:12:44.087Z,12.80
2018-12-07T16:15:11.351Z,12.70
2018-12-07T16:17:38.447Z,12.60
2018-12-07T16:20:10.310Z,12.50
2018-12-07T16:22:37.487Z,12.50
2018-12-07T16:25:05.014Z,12.40
2018-12-07T16:27:32.049Z,12.30
2018-12-07T16:29:59.231Z,12.30
2018-12-07T16:32:26.176Z,12.20
2018-12-07T16:34:53.265Z,12.20
2018-12-07T16:37:20.773Z,12.10
2018-12-07T16:39:48.045Z,12.00
2018-12-07T16:42:15.121Z,12.00
2018-12-07T16:44:42.306Z,12.00
2018-12-07T16:47:09.246Z,11.90
2018-12-07T16:49:36.449Z,11.90
2018-12-07T16:52:03.839Z,11.90
2018-12-07T16:54:30.897Z,11.80
2018-12-07T16:56:57.989Z,11.80
2018-12-07T16:59:25.065Z,11.80
2018-12-07T17:01:52.398Z,11.70
2018-12-07T17:04:19.457Z,11.70
2018-12-07T17:06:53.553Z,11.80
2018-12-07T17:09:23.742Z,11.80
2018-12-07T17:11:50.856Z,11.70
2018-12-07T17:14:17.895Z,11.70
2018-12-07T17:16:45.626Z,11.70
2018-12-07T17:19:12.630Z,11.70
2018-12-07T17:21:39.767Z,11.70
2018-12-07T17:24:07.145Z,11.70
2018-12-07T17:26:34.225Z,11.70
2018-12-07T17:29:01.818Z,11.60
2018-12-07T17:31:28.881Z,11.60
2018-12-07T17:33:56.261Z,11.70
2018-12-07T17:36:23.614Z,11.70
2018-12-07T17:38:57.574Z,11.70
2018-12-07T17:41:24.774Z,11.70
2018-12-07T17:43:54.908Z,11.70
2018-12-07T17:46:22.200Z,11.70
2018-12-07T17:48:49.618Z,11.70
2018-12-07T17:51:16.591Z,11.70
2018-12-07T17:53:43.821Z,11.70
2018-12-07T17:56:11.084Z,11.70
2018-12-07T17:58:38.208Z,11.70
2018-12-07T18:01:05.268Z,11.70
2018-12-07T18:03:32.308Z,11.70
2018-12-07T18:05:59.369Z,11.70
2018-12-07T18:08:26.737Z,11.70
2018-12-07T18:10:54.059Z,11.70
2018-12-07T18:13:21.184Z,11.80
2018-12-07T18:15:55.324Z,11.80
2018-12-07T18:18:22.433Z,11.80
2018-12-07T18:20:49.736Z,11.90
2018-12-07T18:23:17.110Z,11.90
2018-12-07T18:25:44.269Z,11.90
2018-12-07T18:28:11.248Z,12.10
2018-12-07T18:30:38.374Z,12.00
2018-12-07T18:33:05.630Z,11.90
2018-12-07T18:35:32.796Z,12.00
2018-12-07T18:37:59.915Z,12.00
2018-12-07T18:40:34.227Z,12.00
2018-12-07T18:43:01.381Z,12.00
2018-12-07T18:45:28.576Z,11.80
2018-12-07T18:47:55.698Z,11.80
2018-12-07T18:50:22.723Z,12.10
2018-12-07T18:52:51.741Z,12.10
2018-12-07T18:55:18.859Z,12.10
2018-12-07T18:57:45.922Z,11.70
2018-12-07T19:00:13.028Z,11.60
2018-12-07T19:02:40.217Z,11.60
2018-12-07T19:05:08.171Z,11.70
2018-12-07T19:07:35.458Z,11.80
2018-12-07T19:10:03.571Z,11.90
2018-12-07T19:12:30.704Z,11.80
2018-12-07T19:14:57.944Z,11.90
2018-12-07T19:17:25.149Z,11.90
2018-12-07T19:19:52.608Z,12.20
2018-12-07T19:22:19.971Z,12.10
2018-12-07T19:24:47.142Z,12.00
2018-12-07T19:27:14.219Z,12.00
2018-12-07T19:29:41.393Z,11.80
2018-12-07T19:32:08.599Z,11.80
2018-12-07T19:34:35.695Z,11.90
2018-12-07T19:37:02.982Z,11.90
2018-12-07T19:39:30.131Z,11.70
2018-12-07T19:41:57.151Z,11.80
2018-12-07T19:44:24.151Z,11.50
2018-12-07T19:46:51.355Z,11.60
2018-12-07T19:49:18.687Z,11.60
2018-12-07T19:51:45.811Z,11.70
2018-12-07T19:54:13.333Z,11.50
2018-12-07T19:56:40.591Z,11.50
2018-12-07T20:02:03.232Z,11.30
2018-12-07T20:04:30.712Z,11.10
2018-12-07T20:06:58.229Z,11.10
2018-12-07T20:09:25.830Z,11.00
2018-12-07T20:11:53.327Z,11.00
2018-12-07T20:14:34.856Z,10.90
2018-12-07T20:17:01.928Z,10.90
2018-12-07T20:19:29.159Z,10.80
2018-12-07T20:21:56.102Z,10.70
2018-12-07T20:24:23.419Z,10.70
2018-12-07T20:26:50.885Z,10.60
2018-12-07T20:29:18.162Z,10.60
2018-12-07T20:31:52.689Z,10.60
2018-12-07T20:34:19.850Z,10.50
2018-12-07T20:36:47.076Z,10.50
2018-12-07T20:39:14.254Z,10.50
2018-12-07T20:41:41.290Z,10.50
2018-12-07T20:44:08.242Z,10.50
2018-12-07T20:46:35.539Z,10.50
2018-12-07T20:49:02.817Z,10.50
2018-12-07T20:51:37.060Z,10.50
2018-12-07T20:54:04.304Z,10.60
2018-12-07T20:56:31.708Z,10.60
2018-12-07T20:58:58.781Z,10.60
2018-12-07T21:01:26.065Z,10.70
2018-12-07T21:07:36.109Z,10.80
2018-12-07T21:17:07.600Z,10.70
2018-12-07T21:19:38.070Z,10.70
2018-12-07T21:22:12.800Z,10.80
2018-12-07T21:24:40.488Z,10.80
2018-12-07T21:27:07.790Z,10.80
2018-12-07T21:29:35.744Z,10.80
2018-12-07T21:32:08.966Z,10.90
2018-12-07T21:34:57.903Z,10.90
2018-12-07T21:37:25.040Z,10.90
2018-12-07T21:39:57.477Z,10.90
2018-12-07T21:42:24.715Z,10.90
2018-12-07T21:45:05.886Z,11.00
2018-12-07T21:51:10.784Z,11.10
2018-12-07T21:53:37.959Z,11.10
2018-12-07T21:56:05.666Z,11.20
2018-12-07T21:58:32.918Z,11.20
2018-12-07T22:01:00.134Z,11.20
2018-12-07T22:03:27.396Z,11.20
2018-12-07T22:05:54.670Z,11.30
2018-12-07T22:08:21.798Z,11.30
2018-12-07T22:10:48.963Z,11.40
2018-12-07T22:13:15.976Z,11.50
2018-12-07T22:15:43.318Z,11.50
2018-12-07T22:18:17.500Z,11.50
2018-12-07T22:20:44.537Z,11.50
2018-12-07T22:23:11.796Z,11.60
2018-12-07T22:25:39.609Z,11.60
2018-12-07T22:28:07.297Z,11.70
2018-12-07T22:30:34.588Z,11.80
2018-12-07T22:33:01.804Z,11.90
2018-12-07T22:35:28.976Z,11.80
2018-12-07T22:37:56.229Z,11.90
2018-12-07T22:40:23.649Z,12.00
2018-12-07T22:42:50.960Z,12.10
2018-12-07T22:45:18.654Z,12.20
2018-12-07T22:47:46.032Z,12.20
2018-12-07T22:50:13.016Z,12.40
2018-12-07T22:52:39.997Z,12.60
2018-12-07T22:55:07.016Z,12.60
2018-12-07T22:57:34.938Z,12.60
2018-12-07T23:00:01.957Z,12.80
2018-12-07T23:02:29.256Z,12.80
2018-12-07T23:04:56.597Z,12.80
2018-12-07T23:07:23.617Z,12.80
2018-12-07T23:09:50.598Z,12.80
2018-12-07T23:12:17.676Z,12.80
2018-12-07T23:14:44.697Z,12.70
2018-12-07T23:17:18.616Z,12.80
2018-12-07T23:19:45.636Z,12.80
2018-12-07T23:22:12.797Z,12.80
2018-12-07T23:24:39.736Z,12.80
2018-12-07T23:27:06.736Z,12.90
2018-12-07T23:29:34.302Z,12.90
2018-12-07T23:32:01.338Z,12.90
2018-12-07T23:34:28.337Z,12.90
2018-12-07T23:36:55.417Z,13.00
2018-12-07T23:39:22.456Z,12.90
2018-12-07T23:41:49.496Z,12.90
2018-12-07T23:44:16.415Z,12.90
2018-12-07T23:46:43.396Z,12.80
2018-12-07T23:49:10.496Z,12.80
2018-12-07T23:51:37.557Z,12.80
2018-12-07T23:54:04.576Z,12.80
2018-12-07T23:56:31.615Z,12.80
2018-12-07T23:58:58.615Z,12.80
